createdAt,value
2023-05-19T00:06:03.467Z,11.57
2023-05-19T00:16:14.805Z,13.18
2023-05-19T00:26:37.701Z,14.50
2023-05-19T00:36:42.940Z,14.73
2023-05-19T00:46:52.806Z,13.73
2023-05-19T00:57:11.987Z,15.60
2023-05-19T01:07:23.641Z,13.43
2023-05-19T01:17:54.261Z,11.75
2023-05-19T01:28:43.291Z,15.43
2023-05-19T01:38:51.778Z,15.20
2023-05-19T01:48:56.464Z,16.58
2023-05-19T01:59:10.094Z,13.73
2023-05-19T02:09:24.079Z,10.35
2023-05-19T02:19:31.451Z,11.80
2023-05-19T02:29:34.819Z,14.05
2023-05-19T02:39:39.905Z,13.48
2023-05-19T02:49:44.908Z,13.73
2023-05-19T02:59:49.720Z,13.20
2023-05-19T03:09:56.541Z,14.93
2023-05-19T03:20:01.807Z,13.33
2023-05-19T03:30:06.816Z,13.18
2023-05-19T03:40:12.542Z,12.77
2023-05-19T03:50:19.582Z,13.33
2023-05-19T04:00:25.420Z,12.38
2023-05-19T04:10:28.413Z,12.63
2023-05-19T04:20:35.309Z,12.07
2023-05-19T04:30:39.944Z,11.30
2023-05-19T04:40:44.778Z,12.77
2023-05-19T04:50:49.191Z,11.88
2023-05-19T05:00:56.164Z,11.43
2023-05-19T05:10:59.686Z,11.18
2023-05-19T05:21:05.031Z,10.95
2023-05-19T05:31:08.256Z,10.60
2023-05-19T05:41:12.960Z,10.30
2023-05-19T05:51:16.536Z,9.30
2023-05-19T06:01:22.218Z,11.00
2023-05-19T06:11:25.380Z,10.63
2023-05-19T06:21:29.855Z,9.05
2023-05-19T06:31:33.976Z,10.82
2023-05-19T06:41:38.473Z,9.65
2023-05-19T06:51:41.614Z,9.73
2023-05-19T07:01:46.164Z,8.02
2023-05-19T07:11:52.488Z,7.57
2023-05-19T07:21:57.486Z,9.38
2023-05-19T07:32:03.317Z,8.65
2023-05-19T07:42:13.272Z,7.28
2023-05-19T08:02:20.786Z,8.77
2023-05-19T08:12:23.728Z,8.00
2023-05-19T08:22:30.625Z,8.50
2023-05-19T08:32:33.659Z,9.00
2023-05-19T08:42:42.084Z,7.30
2023-05-19T08:52:53.000Z,8.27
2023-05-19T09:03:06.045Z,6.57
2023-05-19T09:13:20.334Z,6.40
2023-05-19T09:23:31.455Z,6.97
2023-05-19T09:33:35.757Z,7.68
2023-05-19T09:43:40.470Z,4.43
2023-05-19T09:53:46.702Z,4.35
2023-05-19T10:03:55.774Z,5.85
2023-05-19T10:13:59.451Z,4.03
2023-05-19T10:24:05.790Z,4.57
2023-05-19T10:34:24.078Z,5.22
2023-05-19T10:54:43.788Z,4.20
2023-05-19T11:04:58.902Z,5.28
2023-05-19T11:15:04.102Z,4.50
2023-05-19T11:25:14.659Z,5.50
2023-05-19T11:35:26.701Z,5.00
2023-05-19T11:45:34.797Z,5.70
2023-05-19T11:55:43.795Z,6.70
2023-05-19T12:05:53.683Z,5.50
2023-05-19T12:16:00.795Z,4.13
2023-05-19T12:26:06.420Z,3.88
2023-05-19T12:36:13.840Z,2.97
2023-05-19T12:46:19.829Z,2.70
2023-05-19T12:56:29.484Z,1.52
2023-05-19T13:06:36.825Z,2.17
2023-05-19T13:16:47.036Z,2.42
2023-05-19T13:26:56.174Z,1.15
2023-05-19T13:36:59.401Z,0.87
2023-05-19T13:47:04.098Z,1.02
2023-05-19T13:57:07.679Z,0.70
2023-05-19T14:07:16.117Z,1.17
2023-05-19T14:17:21.588Z,0.90
2023-05-19T14:27:26.024Z,1.45
2023-05-19T14:37:32.300Z,0.65
2023-05-19T14:47:37.494Z,0.80
2023-05-19T14:57:40.464Z,1.88
2023-05-19T15:07:45.025Z,1.48
2023-05-19T15:17:48.277Z,1.23
2023-05-19T15:28:00.754Z,1.10
2023-05-19T15:38:06.547Z,1.00
2023-05-19T15:48:13.878Z,0.70
2023-05-19T15:58:21.792Z,1.05
2023-05-19T16:08:26.275Z,1.90
2023-05-19T16:18:32.274Z,0.82
2023-05-19T16:28:39.747Z,5.90
2023-05-19T16:38:43.285Z,1.30
2023-05-19T16:48:49.021Z,1.75
2023-05-19T16:58:53.170Z,1.27
2023-05-19T17:08:59.330Z,0.70
2023-05-19T17:19:02.406Z,1.58
2023-05-19T17:29:06.906Z,6.40
2023-05-19T17:39:10.150Z,1.35
2023-05-19T17:49:16.390Z,2.10
2023-05-19T17:59:20.181Z,1.30
2023-05-19T18:09:28.867Z,1.33
2023-05-19T18:19:32.716Z,1.35
2023-05-19T18:29:37.375Z,1.45
2023-05-19T18:39:40.473Z,1.60
2023-05-19T18:49:44.971Z,1.80
2023-05-19T18:59:48.008Z,1.30
2023-05-19T19:09:55.635Z,1.45
2023-05-19T19:19:59.058Z,1.27
2023-05-19T19:30:09.448Z,1.48
2023-05-19T19:40:13.352Z,1.43
2023-05-19T19:50:22.031Z,1.70
2023-05-19T20:00:24.974Z,1.08
2023-05-19T20:10:29.564Z,1.83
2023-05-19T20:20:32.864Z,1.77
2023-05-19T20:30:37.812Z,1.40
2023-05-19T20:40:41.054Z,1.83
2023-05-19T20:50:46.190Z,1.67
2023-05-19T21:00:54.392Z,1.52
2023-05-19T21:11:00.707Z,1.80
2023-05-19T21:21:04.827Z,2.28
2023-05-19T21:31:09.591Z,1.48
2023-05-19T21:41:13.777Z,1.42
2023-05-19T21:51:18.373Z,2.00
2023-05-19T22:01:22.533Z,2.00
2023-05-19T22:11:27.499Z,1.48
2023-05-19T22:21:31.480Z,1.50
2023-05-19T22:31:36.572Z,1.98
2023-05-19T22:41:40.700Z,1.60
2023-05-19T22:51:45.184Z,1.77
2023-05-19T23:01:48.372Z,1.85
2023-05-19T23:11:54.083Z,1.33
2023-05-19T23:21:57.257Z,1.67
2023-05-19T23:32:02.099Z,2.33
2023-05-19T23:42:06.408Z,2.00
2023-05-19T23:52:11.132Z,2.00
